Time;durP1;ratioP1;P1;durP2;ratioP2;P2;SDS_P1;SDS_P2;PMS_P1;PMS_P2;Temp;Humidity;BMP_temperature;BMP_pressure;BME280_temperature;BME280_humidity;BME280_pressure;Samples;Min_cycle;Max_cycle;Signal;HPM_P1;HPM_P2
2023/10/03 00:00:34;;;;;;;4.07;2.10;;;17.10;76.20;;;;;;6143976;29;20055;-80
2023/10/03 00:03:35;;;;;;;4.22;1.80;;;17.10;77.10;;;;;;6151063;28;20059;-80
2023/10/03 00:06:38;;;;;;;4.28;1.85;;;17.10;76.50;;;;;;6150656;29;20055;-80
2023/10/03 00:09:41;;;;;;;6.70;2.20;;;17.20;76.10;;;;;;6150548;29;20051;-80
2023/10/03 00:12:43;;;;;;;5.28;2.08;;;17.20;75.70;;;;;;6150734;28;20055;-81
2023/10/03 00:15:45;;;;;;;5.72;2.28;;;17.20;74.90;;;;;;6158074;28;20070;-80
2023/10/03 00:18:46;;;;;;;3.70;1.70;;;17.30;75.30;;;;;;6150956;28;20055;-81
2023/10/03 00:21:48;;;;;;;6.45;2.22;;;17.30;73.80;;;;;;6151488;28;20059;-82
2023/10/03 00:24:50;;;;;;;5.00;2.20;;;17.30;73.70;;;;;;6151205;29;20055;-81
2023/10/03 00:27:52;;;;;;;5.05;2.22;;;17.30;75.00;;;;;;6150367;29;20054;-82
2023/10/03 00:30:53;;;;;;;5.25;2.10;;;17.30;74.90;;;;;;6148099;28;20418;-81
2023/10/03 00:33:55;;;;;;;4.25;2.22;;;17.30;74.40;;;;;;6143834;28;20051;-81
2023/10/03 00:36:56;;;;;;;7.20;2.17;;;17.30;75.30;;;;;;6150985;29;20051;-81
2023/10/03 00:39:59;;;;;;;5.63;2.28;;;17.30;74.80;;;;;;6150282;29;20443;-82
2023/10/03 00:43:01;;;;;;;5.18;1.90;;;17.30;75.00;;;;;;6147509;29;20082;-82
2023/10/03 00:46:03;;;;;;;5.50;2.50;;;17.30;75.60;;;;;;6150489;29;20062;-81
2023/10/03 00:49:09;;;;;;;5.10;2.33;;;17.30;75.40;;;;;;6149697;28;20055;-82
2023/10/03 00:52:12;;;;;;;6.05;2.58;;;17.20;76.20;;;;;;6126837;29;20055;-81
2023/10/03 00:55:14;;;;;;;6.55;2.22;;;17.20;76.10;;;;;;6150398;29;20062;-82
2023/10/03 00:58:29;;;;;;;6.03;2.60;;;17.20;76.40;;;;;;6142474;29;20059;-90
2023/10/03 01:01:33;;;;;;;8.73;2.67;;;17.20;75.60;;;;;;6150576;29;20074;-83
2023/10/03 01:04:36;;;;;;;11.18;2.80;;;17.00;73.80;;;;;;6150475;28;20066;-83
2023/10/03 01:07:39;;;;;;;4.88;2.67;;;16.90;74.30;;;;;;6146562;29;20055;-82
2023/10/03 01:10:40;;;;;;;5.32;2.50;;;16.70;74.70;;;;;;6150034;29;20051;-81
2023/10/03 01:13:45;;;;;;;4.43;2.35;;;16.50;74.20;;;;;;6149268;29;20139;-81
2023/10/03 01:16:48;;;;;;;6.10;2.60;;;16.30;75.00;;;;;;6154019;28;20047;-88
2023/10/03 01:19:50;;;;;;;8.02;3.08;;;16.20;75.30;;;;;;6149918;29;20351;-82
2023/10/03 01:22:51;;;;;;;5.38;2.47;;;16.00;76.50;;;;;;6150074;29;20499;-82
2023/10/03 01:25:53;;;;;;;3.92;2.00;;;15.80;73.80;;;;;;6150635;29;20070;-83
2023/10/03 01:28:56;;;;;;;4.07;1.90;;;15.70;73.10;;;;;;6141228;28;20182;-83
2023/10/03 01:31:58;;;;;;;7.45;1.95;;;15.60;73.10;;;;;;6148178;28;20063;-82
2023/10/03 01:35:00;;;;;;;3.97;1.55;;;15.50;71.10;;;;;;6148543;28;20062;-82
2023/10/03 01:38:02;;;;;;;2.75;1.23;;;15.50;69.50;;;;;;6148795;29;20066;-83
2023/10/03 01:41:06;;;;;;;3.17;1.38;;;15.30;68.90;;;;;;6148263;29;20059;-85
2023/10/03 01:44:08;;;;;;;5.03;1.73;;;15.20;66.60;;;;;;6140261;28;20055;-82
2023/10/03 01:47:10;;;;;;;3.53;1.30;;;15.10;67.70;;;;;;6148660;29;20150;-83
2023/10/03 01:50:12;;;;;;;2.70;1.10;;;15.00;66.60;;;;;;6148967;28;20511;-83
2023/10/03 01:53:15;;;;;;;4.00;1.40;;;15.00;67.30;;;;;;6148643;28;20134;-83
2023/10/03 01:56:17;;;;;;;3.33;1.42;;;15.00;66.50;;;;;;6148166;29;20059;-83
2023/10/03 01:59:18;;;;;;;5.68;1.20;;;14.90;66.40;;;;;;6139520;28;20062;-82
2023/10/03 02:02:20;;;;;;;3.78;1.60;;;14.80;67.30;;;;;;6148384;29;20507;-84
2023/10/03 02:05:23;;;;;;;2.83;1.10;;;14.70;67.30;;;;;;6148567;29;20055;-83
2023/10/03 02:08:25;;;;;;;4.18;1.25;;;14.60;67.30;;;;;;6164248;28;20061;-82
2023/10/03 02:11:27;;;;;;;5.82;1.35;;;14.50;67.70;;;;;;6149165;28;20094;-83
2023/10/03 02:14:30;;;;;;;3.72;1.15;;;14.30;68.20;;;;;;6140807;29;20651;-83
2023/10/03 02:17:34;;;;;;;5.40;1.40;;;14.20;67.60;;;;;;6147882;29;20142;-81
2023/10/03 02:20:38;;;;;;;2.70;1.05;;;14.20;69.70;;;;;;6147560;29;20063;-81
2023/10/03 02:23:40;;;;;;;3.97;1.50;;;14.10;69.70;;;;;;6147831;28;20407;-81
2023/10/03 02:26:41;;;;;;;4.25;1.50;;;14.00;68.50;;;;;;6130630;29;20070;-82
2023/10/03 02:29:44;;;;;;;5.38;1.40;;;13.90;68.10;;;;;;6140270;28;20422;-82
2023/10/03 02:32:46;;;;;;;5.97;1.55;;;13.80;69.20;;;;;;6147147;29;20047;-80
2023/10/03 02:35:48;;;;;;;3.75;1.50;;;13.70;70.60;;;;;;6147398;29;20521;-80
2023/10/03 02:38:51;;;;;;;3.10;1.30;;;13.60;72.10;;;;;;6147764;29;20055;-81
2023/10/03 02:41:54;;;;;;;2.55;1.25;;;13.70;74.60;;;;;;6147774;29;20059;-81
2023/10/03 02:44:56;;;;;;;4.00;1.33;;;13.80;75.10;;;;;;6141260;29;20491;-81
2023/10/03 02:48:09;;;;;;;3.17;0.98;;;13.90;75.10;;;;;;6147650;29;20070;-82
2023/10/03 02:51:12;;;;;;;3.70;1.10;;;14.00;73.80;;;;;;6147482;28;20054;-82
2023/10/03 02:54:14;;;;;;;2.30;0.90;;;14.10;71.60;;;;;;6149625;28;20119;-83
2023/10/03 02:57:15;;;;;;;1.60;0.65;;;14.10;70.70;;;;;;6147600;29;20451;-83
2023/10/03 03:00:18;;;;;;;2.38;0.80;;;14.20;69.90;;;;;;6124530;29;20051;-82
2023/10/03 03:03:22;;;;;;;3.30;0.90;;;14.20;68.50;;;;;;6147850;28;20062;-82
2023/10/03 03:06:26;;;;;;;2.22;0.70;;;14.20;66.60;;;;;;6147556;28;20063;-82
2023/10/03 03:09:28;;;;;;;3.58;1.10;;;14.20;66.90;;;;;;6170840;28;20075;-83
2023/10/03 03:12:29;;;;;;;2.65;1.00;;;14.20;65.80;;;;;;6147381;28;20054;-82
2023/10/03 03:15:32;;;;;;;2.33;0.90;;;14.20;65.80;;;;;;6147558;29;20067;-81
2023/10/03 03:18:40;;;;;;;2.75;1.10;;;14.20;66.80;;;;;;6124470;29;20650;-83
2023/10/03 03:21:44;;;;;;;2.63;1.02;;;14.20;65.90;;;;;;6148035;29;20070;-84
2023/10/03 03:24:51;;;;;;;4.63;1.00;;;14.20;66.80;;;;;;6147394;29;20078;-84
2023/10/03 03:27:54;;;;;;;2.92;1.10;;;14.20;67.50;;;;;;6148461;29;20090;-83
2023/10/03 03:30:57;;;;;;;2.97;1.10;;;14.10;68.50;;;;;;6147068;29;20058;-84
2023/10/03 03:34:00;;;;;;;5.18;1.70;;;14.10;71.40;;;;;;6146874;29;20062;-84
2023/10/03 03:37:21;;;;;;;2.97;1.20;;;14.00;71.60;;;;;;6154352;28;20524;-85
2023/10/03 03:40:34;;;;;;;3.80;1.70;;;14.00;72.30;;;;;;6149603;29;20062;-84
2023/10/03 03:43:36;;;;;;;4.03;1.75;;;13.90;72.40;;;;;;6176039;23;20062;-79
2023/10/03 03:46:39;;;;;;;3.70;1.65;;;13.90;72.60;;;;;;6243579;28;20057;-79
2023/10/03 03:49:40;;;;;;;3.40;1.48;;;13.90;72.30;;;;;;6217639;28;20061;-78
2023/10/03 03:52:42;;;;;;;3.97;1.67;;;13.90;73.00;;;;;;6242237;28;20054;-78
2023/10/03 03:55:44;;;;;;;4.28;1.85;;;13.80;72.90;;;;;;6241823;28;20057;-78
2023/10/03 03:58:45;;;;;;;4.28;2.25;;;13.90;72.80;;;;;;6235802;28;20057;-78
2023/10/03 04:01:47;;;;;;;4.53;2.28;;;13.80;71.10;;;;;;6240877;28;20053;-79
2023/10/03 04:04:49;;;;;;;3.80;2.00;;;13.80;71.20;;;;;;6242448;28;20053;-79
2023/10/03 04:07:51;;;;;;;4.90;2.40;;;13.80;70.90;;;;;;6220502;28;20105;-80
2023/10/03 04:10:54;;;;;;;3.95;2.10;;;13.80;69.30;;;;;;6223033;28;20053;-79
2023/10/03 04:13:55;;;;;;;4.40;2.30;;;13.80;69.00;;;;;;6242375;28;20060;-79
2023/10/03 04:16:57;;;;;;;5.32;2.30;;;13.80;69.70;;;;;;6223217;28;20080;-79
2023/10/03 04:19:59;;;;;;;4.35;2.20;;;13.80;69.20;;;;;;6222496;28;20052;-79
2023/10/03 04:23:01;;;;;;;6.10;2.75;;;13.80;69.80;;;;;;6244860;28;20053;-78
2023/10/03 04:26:04;;;;;;;4.90;2.35;;;13.80;68.90;;;;;;6246814;28;20683;-78
2023/10/03 04:29:06;;;;;;;6.65;2.58;;;13.80;69.60;;;;;;6229311;28;20053;-78
2023/10/03 04:32:07;;;;;;;6.53;3.30;;;13.80;70.60;;;;;;6223037;28;20165;-78
2023/10/03 04:35:17;;;;;;;6.60;3.13;;;13.70;70.80;;;;;;6230537;28;20058;-78
2023/10/03 04:38:19;;;;;;;8.02;3.20;;;13.70;73.70;;;;;;6221522;28;20136;-78
2023/10/03 04:41:21;;;;;;;7.85;3.17;;;13.70;75.00;;;;;;6222221;28;20109;-79
2023/10/03 04:44:23;;;;;;;8.20;3.40;;;13.60;75.60;;;;;;6234985;28;20417;-79
2023/10/03 04:47:24;;;;;;;6.93;3.33;;;13.50;75.60;;;;;;6222212;28;20057;-79
2023/10/03 04:50:26;;;;;;;6.03;3.15;;;13.40;76.60;;;;;;6221864;28;20049;-79
2023/10/03 04:53:28;;;;;;;8.98;3.60;;;13.40;76.50;;;;;;6245440;28;20057;-80
2023/10/03 04:56:29;;;;;;;7.22;3.45;;;13.30;76.60;;;;;;6222151;28;20050;-80
2023/10/03 04:59:31;;;;;;;8.65;4.00;;;13.30;77.20;;;;;;6216703;28;20488;-81
2023/10/03 05:02:33;;;;;;;9.13;4.10;;;13.30;76.40;;;;;;6243843;28;20176;-79
2023/10/03 05:05:35;;;;;;;10.95;4.15;;;13.30;75.90;;;;;;6239950;28;20072;-79
2023/10/03 05:08:37;;;;;;;8.32;4.00;;;13.40;75.10;;;;;;6238267;28;20049;-78
2023/10/03 05:11:39;;;;;;;7.57;3.35;;;13.40;74.80;;;;;;6241775;28;20447;-80
2023/10/03 05:14:40;;;;;;;7.53;3.30;;;13.30;73.70;;;;;;6238505;28;20144;-76
2023/10/03 05:17:54;;;;;;;5.85;2.30;;;13.30;74.70;;;;;;6243333;28;20053;-77
2023/10/03 05:24:33;;;;;;;5.80;2.50;;;13.30;74.70;;;;;;6227171;28;20033;-77
2023/10/03 05:27:35;;;;;;;5.85;2.53;;;13.30;73.80;;;;;;6222778;28;20517;-78
2023/10/03 05:30:38;;;;;;;7.22;2.38;;;13.30;72.10;;;;;;6244024;28;20045;-80
2023/10/03 05:33:53;;;;;;;5.43;2.00;;;13.40;72.00;;;;;;6145441;29;20062;-77
2023/10/03 05:36:55;;;;;;;6.28;2.65;;;13.40;72.20;;;;;;6145316;29;20062;-80
2023/10/03 05:39:57;;;;;;;5.53;1.98;;;13.40;71.80;;;;;;6145172;29;20054;-76
2023/10/03 05:43:04;;;;;;;6.65;2.38;;;13.40;72.30;;;;;;6142446;29;20086;-77
2023/10/03 05:46:07;;;;;;;6.38;2.35;;;13.40;71.20;;;;;;6145081;29;20059;-79
2023/10/03 05:49:09;;;;;;;4.47;2.00;;;13.40;70.90;;;;;;6144498;29;20057;-80
2023/10/03 05:52:11;;;;;;;5.82;2.35;;;13.40;70.70;;;;;;6144958;29;20499;-80
2023/10/03 05:55:12;;;;;;;5.65;2.42;;;13.40;71.20;;;;;;6145054;29;20104;-80
2023/10/03 05:58:14;;;;;;;5.85;2.33;;;13.50;70.70;;;;;;6137738;29;20051;-80
2023/10/03 06:01:16;;;;;;;7.28;2.53;;;13.50;70.20;;;;;;6144907;29;20067;-79
2023/10/03 06:04:17;;;;;;;7.20;2.55;;;13.50;70.10;;;;;;6189169;28;20436;-81
2023/10/03 06:07:19;;;;;;;5.90;2.83;;;13.40;69.80;;;;;;6244784;28;20529;-79
2023/10/03 06:10:22;;;;;;;10.73;3.47;;;13.40;70.50;;;;;;6220704;28;20097;-81
2023/10/03 06:13:23;;;;;;;5.97;2.65;;;13.40;71.10;;;;;;6227403;28;20057;-80
2023/10/03 06:16:25;;;;;;;7.28;3.00;;;13.40;72.70;;;;;;6243822;28;20224;-81
2023/10/03 06:19:26;;;;;;;7.20;3.17;;;13.40;71.70;;;;;;6242516;28;20049;-80
2023/10/03 06:22:28;;;;;;;8.75;3.00;;;13.40;73.30;;;;;;6244746;28;20065;-80
2023/10/03 06:25:29;;;;;;;7.30;3.00;;;13.40;71.80;;;;;;6220345;28;20508;-78
2023/10/03 06:28:31;;;;;;;8.63;2.90;;;13.50;70.30;;;;;;6231292;28;20053;-79
2023/10/03 06:31:33;;;;;;;8.57;3.05;;;13.50;70.50;;;;;;6243530;28;20049;-79
2023/10/03 06:34:35;;;;;;;6.95;3.00;;;13.50;69.40;;;;;;6220287;28;20054;-79
2023/10/03 06:37:40;;;;;;;6.13;2.63;;;13.50;69.20;;;;;;6243888;28;20053;-79
2023/10/03 06:40:42;;;;;;;5.78;2.60;;;13.40;68.20;;;;;;6220015;28;20053;-81
2023/10/03 06:43:44;;;;;;;7.30;3.03;;;13.60;68.80;;;;;;6228959;28;20188;-80
2023/10/03 06:46:46;;;;;;;6.57;2.90;;;13.60;67.90;;;;;;6244113;28;20054;-79
2023/10/03 06:49:49;;;;;;;8.48;3.10;;;13.60;66.50;;;;;;6219534;28;20057;-78
2023/10/03 06:52:52;;;;;;;7.63;3.10;;;13.60;68.20;;;;;;6243385;28;20056;-79
2023/10/03 06:55:57;;;;;;;9.70;3.60;;;13.70;67.80;;;;;;6219429;28;20244;-79
2023/10/03 06:58:58;;;;;;;8.38;3.45;;;13.60;68.10;;;;;;6229777;28;20062;-78
2023/10/03 07:02:00;;;;;;;7.30;3.50;;;13.60;68.50;;;;;;6244106;28;20072;-79
2023/10/03 07:05:02;;;;;;;7.90;3.22;;;13.70;69.20;;;;;;6221406;28;20050;-81
2023/10/03 07:08:04;;;;;;;7.63;3.88;;;13.50;70.30;;;;;;6245990;28;20046;-81
2023/10/03 07:11:05;;;;;;;6.78;3.58;;;13.40;73.90;;;;;;6222275;28;20486;-80
2023/10/03 07:14:08;;;;;;;6.75;3.40;;;13.40;73.80;;;;;;6229012;28;20077;-81
2023/10/03 07:17:10;;;;;;;8.82;3.47;;;13.40;74.80;;;;;;6247828;28;20083;-81
2023/10/03 07:20:12;;;;;;;7.35;3.40;;;13.50;74.90;;;;;;6237485;28;20045;-80
2023/10/03 07:23:14;;;;;;;6.90;3.15;;;13.60;75.00;;;;;;6238008;28;20054;-80
2023/10/03 07:26:16;;;;;;;6.95;3.45;;;13.70;74.30;;;;;;6245713;28;20053;-80
2023/10/03 07:29:17;;;;;;;7.13;3.17;;;13.80;72.50;;;;;;6216765;28;20061;-81
2023/10/03 07:32:19;;;;;;;9.10;3.65;;;14.10;72.90;;;;;;6243061;28;20049;-82
2023/10/03 07:35:22;;;;;;;8.95;3.15;;;14.20;65.90;;;;;;6219956;28;20088;-80
2023/10/03 07:38:23;;;;;;;7.85;3.22;;;14.40;68.70;;;;;;6242148;28;20049;-81
2023/10/03 07:41:27;;;;;;;7.53;3.25;;;14.40;65.90;;;;;;6221193;28;20667;-78
2023/10/03 07:44:28;;;;;;;7.22;3.13;;;14.40;65.30;;;;;;6232522;28;20421;-78
2023/10/03 07:47:30;;;;;;;7.30;2.97;;;14.70;66.20;;;;;;6243854;28;20141;-79
2023/10/03 07:50:32;;;;;;;6.20;2.88;;;14.80;64.10;;;;;;6238114;28;20136;-78
2023/10/03 07:53:36;;;;;;;8.20;3.40;;;14.70;62.30;;;;;;6245585;28;20432;-78
2023/10/03 07:56:42;;;;;;;6.20;3.15;;;14.90;64.40;;;;;;6247542;28;20187;-78
2023/10/03 07:59:56;;;;;;;6.68;3.00;;;15.40;60.80;;;;;;6244701;28;20514;-78
2023/10/03 08:02:58;;;;;;;10.02;3.85;;;16.10;59.50;;;;;;6223609;28;20744;-78
2023/10/03 08:06:00;;;;;;;10.68;3.60;;;16.30;55.10;;;;;;6246319;28;20131;-78
2023/10/03 08:09:03;;;;;;;6.82;2.90;;;17.00;46.50;;;;;;6224016;28;20104;-79
2023/10/03 08:12:11;;;;;;;5.88;2.55;;;17.60;44.30;;;;;;6247342;28;20132;-78
2023/10/03 08:15:17;;;;;;;6.68;2.72;;;17.60;32.80;;;;;;6242806;28;20874;-76
2023/10/03 08:18:19;;;;;;;7.00;2.58;;;17.80;38.60;;;;;;6237133;28;20089;-87
2023/10/03 08:21:21;;;;;;;6.80;2.50;;;17.90;37.10;;;;;;6226997;28;20417;-80
2023/10/03 08:24:28;;;;;;;6.93;2.45;;;17.70;27.10;;;;;;6255075;28;20060;-82
2023/10/03 08:27:31;;;;;;;6.13;2.53;;;17.40;35.20;;;;;;6231587;28;20049;-85
2023/10/03 08:30:35;;;;;;;6.85;2.50;;;18.30;38.10;;;;;;6244655;28;20085;-84
2023/10/03 08:33:36;;;;;;;4.97;2.30;;;19.00;29.80;;;;;;6238092;28;20053;-82
2023/10/03 08:36:38;;;;;;;4.97;1.88;;;19.40;24.30;;;;;;6224057;28;20143;-79
2023/10/03 08:39:40;;;;;;;5.18;2.33;;;19.90;16.40;;;;;;6246067;28;20057;-88
2023/10/03 08:42:44;;;;;;;4.47;2.17;;;19.90;21.60;;;;;;6239375;28;20049;-89
2023/10/03 08:45:52;;;;;;;6.35;2.30;;;20.10;16.80;;;;;;6241184;28;20057;-79
2023/10/03 08:49:00;;;;;;;5.05;2.25;;;19.60;13.20;;;;;;6221677;28;20160;-79
2023/10/03 08:52:03;;;;;;;5.10;2.05;;;19.50;25.10;;;;;;6222971;28;20200;-82
2023/10/03 08:55:08;;;;;;;6.47;1.95;;;19.80;9.80;;;;;;6248574;28;20140;-86
2023/10/03 08:58:13;;;;;;;4.95;1.80;;;19.20;9.60;;;;;;6232446;28;20064;-82
2023/10/03 09:04:52;;;;;;;4.63;1.80;;;18.50;12.80;;;;;;6244766;28;20042;-80
2023/10/03 09:07:58;;;;;;;4.65;1.70;;;18.60;16.60;;;;;;6236419;28;20064;-81
2023/10/03 09:11:00;;;;;;;4.60;1.85;;;19.30;9.10;;;;;;6247523;28;20053;-78
2023/10/03 09:14:02;;;;;;;7.22;2.13;;;19.00;12.80;;;;;;6236265;28;20064;-85
2023/10/03 09:17:03;;;;;;;3.65;1.60;;;18.80;11.70;;;;;;6250346;28;20060;-77
2023/10/03 09:20:08;;;;;;;6.38;1.60;;;18.20;9.70;;;;;;6226022;28;20053;-84
2023/10/03 09:23:14;;;;;;;3.88;1.52;;;17.70;11.90;;;;;;6230862;28;20127;-91
2023/10/03 09:26:19;;;;;;;6.22;1.50;;;18.90;17.90;;;;;;6249608;28;20045;-86
2023/10/03 09:29:30;;;;;;;5.18;1.98;;;19.90;2.60;;;;;;6219568;28;20053;-77
2023/10/03 09:32:39;;;;;;;5.32;1.90;;;20.60;5.40;;;;;;6241188;28;20053;-77
2023/10/03 09:35:41;;;;;;;5.22;1.90;;;21.30;1.00;;;;;;6245953;28;20053;-78
2023/10/03 09:38:44;;;;;;;5.72;1.90;;;20.80;1.00;;;;;;6221508;28;20236;-78
2023/10/03 09:41:46;;;;;;;4.50;1.60;;;20.50;1.00;;;;;;6244959;28;20637;-78
2023/10/03 09:44:57;;;;;;;5.88;1.90;;;21.00;1.00;;;;;;6221774;28;20064;-77
2023/10/03 09:48:05;;;;;;;3.58;1.42;;;21.40;1.00;;;;;;6246918;28;20060;-79
2023/10/03 09:51:08;;;;;;;5.05;1.60;;;21.80;1.00;;;;;;6222345;28;20115;-80
2023/10/03 09:54:17;;;;;;;4.13;1.48;;;22.40;1.00;;;;;;6222402;28;20103;-79
2023/10/03 09:57:28;;;;;;;5.38;1.63;;;22.60;1.00;;;;;;6243825;28;20064;-80
2023/10/03 10:00:39;;;;;;;6.25;1.73;;;22.40;1.00;;;;;;6217117;28;20050;-79
2023/10/03 10:03:46;;;;;;;5.07;1.65;;;22.40;1.00;;;;;;6223140;28;20060;-79
2023/10/03 10:06:48;;;;;;;5.43;2.05;;;22.10;1.00;;;;;;6245672;28;20547;-78
2023/10/03 10:09:52;;;;;;;6.38;2.00;;;22.30;1.00;;;;;;6221268;28;20064;-79
2023/10/03 10:12:54;;;;;;;5.18;1.88;;;22.40;1.00;;;;;;6236352;28;20809;-78
2023/10/03 10:15:55;;;;;;;4.40;1.70;;;23.10;1.00;;;;;;6222108;28;20397;-77
2023/10/03 10:18:57;;;;;;;4.55;1.83;;;23.20;1.00;;;;;;6245840;28;20049;-80
2023/10/03 10:22:02;;;;;;;4.00;1.42;;;23.30;1.00;;;;;;6220865;28;20050;-80
2023/10/03 10:25:04;;;;;;;4.47;1.55;;;23.50;1.00;;;;;;6248233;28;20523;-79
2023/10/03 10:28:05;;;;;;;5.82;1.88;;;23.20;1.00;;;;;;6225261;28;20053;-79
2023/10/03 10:31:07;;;;;;;5.20;1.80;;;23.30;1.00;;;;;;6247155;28;20045;-81
2023/10/03 10:34:09;;;;;;;5.47;1.70;;;23.00;1.00;;;;;;6222563;28;20076;-79
2023/10/03 10:37:15;;;;;;;5.47;1.65;;;23.40;1.00;;;;;;6245479;28;20413;-80
2023/10/03 10:40:22;;;;;;;4.95;1.60;;;23.90;1.00;;;;;;6245659;28;20061;-80
2023/10/03 10:43:24;;;;;;;5.10;1.70;;;23.30;1.00;;;;;;6233603;28;20139;-79
2023/10/03 10:46:27;;;;;;;4.85;1.75;;;23.70;1.00;;;;;;6244390;28;20283;-79
2023/10/03 10:49:28;;;;;;;5.85;1.75;;;23.60;1.00;;;;;;6221435;28;20193;-80
2023/10/03 10:52:30;;;;;;;5.10;2.00;;;23.70;1.00;;;;;;6245622;28;20103;-79
2023/10/03 10:55:33;;;;;;;4.40;1.52;;;23.80;1.00;;;;;;6226657;28;20054;-78
2023/10/03 10:58:34;;;;;;;5.50;1.70;;;24.20;1.00;;;;;;6231306;28;20054;-79
2023/10/03 11:01:37;;;;;;;5.45;1.67;;;24.30;1.00;;;;;;6243503;28;20053;-78
2023/10/03 11:04:39;;;;;;;5.93;1.50;;;24.30;1.00;;;;;;6228685;28;20636;-78
2023/10/03 11:07:43;;;;;;;3.05;1.25;;;23.40;1.00;;;;;;6243469;28;20497;-78
2023/10/03 11:10:44;;;;;;;7.55;1.83;;;22.90;1.00;;;;;;6219708;28;20057;-78
2023/10/03 11:13:46;;;;;;;5.50;1.65;;;23.50;1.00;;;;;;6229371;28;20050;-79
2023/10/03 11:16:47;;;;;;;6.45;1.90;;;23.40;1.00;;;;;;6247327;28;20053;-79
2023/10/03 11:19:49;;;;;;;5.32;1.40;;;23.20;1.00;;;;;;6231625;28;20065;-80
2023/10/03 11:22:51;;;;;;;3.90;1.30;;;23.40;1.00;;;;;;6248596;28;20107;-79
2023/10/03 11:25:52;;;;;;;3.95;1.38;;;22.80;1.00;;;;;;6224392;28;20563;-78
2023/10/03 11:28:54;;;;;;;3.90;1.13;;;23.20;1.00;;;;;;6234341;28;20057;-83
2023/10/03 11:31:56;;;;;;;4.55;1.40;;;23.20;1.00;;;;;;6247853;28;20052;-78
2023/10/03 11:34:57;;;;;;;5.93;1.30;;;23.60;1.00;;;;;;6224327;28;20061;-78
2023/10/03 11:37:59;;;;;;;5.15;1.90;;;23.60;1.00;;;;;;6247629;28;20064;-78
2023/10/03 11:41:00;;;;;;;4.63;1.67;;;24.10;1.00;;;;;;6224371;28;20057;-78
2023/10/03 11:44:04;;;;;;;3.70;1.25;;;24.00;1.00;;;;;;6234306;28;20457;-78
2023/10/03 11:47:05;;;;;;;3.15;1.10;;;23.10;1.00;;;;;;6247951;28;20053;-78
2023/10/03 11:50:09;;;;;;;3.45;1.20;;;23.00;1.00;;;;;;6223804;28;20121;-79
2023/10/03 11:53:11;;;;;;;5.15;1.50;;;24.20;1.00;;;;;;6247287;28;20056;-77
2023/10/03 11:56:12;;;;;;;4.20;1.30;;;24.60;1.00;;;;;;6223793;28;20235;-78
2023/10/03 11:59:17;;;;;;;4.28;1.35;;;24.70;1.00;;;;;;6223395;28;20073;-78
2023/10/03 12:02:18;;;;;;;6.28;1.60;;;24.60;1.00;;;;;;6247398;28;20053;-83
2023/10/03 12:05:23;;;;;;;3.70;1.17;;;24.40;1.00;;;;;;6245698;28;20076;-80
2023/10/03 12:08:24;;;;;;;4.68;1.30;;;24.90;1.00;;;;;;6247217;28;20049;-79
2023/10/03 12:11:26;;;;;;;2.80;1.15;;;24.20;1.00;;;;;;6223458;28;20517;-79
2023/10/03 12:14:29;;;;;;;3.70;1.50;;;23.00;1.00;;;;;;6244783;28;20057;-78
2023/10/03 12:17:30;;;;;;;4.47;1.67;;;22.70;1.00;;;;;;6223074;28;20045;-80
2023/10/03 12:20:33;;;;;;;3.53;1.20;;;23.10;1.00;;;;;;6246707;28;20058;-79
2023/10/03 12:23:37;;;;;;;3.63;1.17;;;22.70;1.00;;;;;;6223196;28;20046;-80
2023/10/03 12:26:38;;;;;;;2.95;1.30;;;21.50;1.00;;;;;;6245790;28;20584;-79
2023/10/03 12:29:40;;;;;;;5.68;1.23;;;21.70;1.00;;;;;;6221549;28;20192;-78
2023/10/03 12:32:41;;;;;;;4.47;1.17;;;21.20;1.00;;;;;;6248687;28;20057;-87
2023/10/03 12:35:43;;;;;;;3.50;1.50;;;20.40;1.00;;;;;;6229871;28;20057;-78
2023/10/03 12:38:45;;;;;;;4.32;1.30;;;20.10;1.00;;;;;;6246347;28;20057;-77
2023/10/03 12:41:47;;;;;;;2.85;1.10;;;20.40;1.00;;;;;;6222571;28;20136;-79
2023/10/03 12:44:50;;;;;;;4.35;1.17;;;20.30;1.00;;;;;;6230578;28;20065;-79
2023/10/03 12:47:54;;;;;;;4.80;1.30;;;20.50;1.00;;;;;;6222107;28;20057;-78
2023/10/03 12:50:57;;;;;;;4.65;1.00;;;20.40;1.00;;;;;;6246683;28;20073;-77
2023/10/03 12:53:59;;;;;;;2.50;0.82;;;20.40;1.00;;;;;;6222087;28;20136;-78
2023/10/03 12:57:00;;;;;;;3.30;1.08;;;21.20;1.00;;;;;;6244450;28;20425;-79
2023/10/03 13:00:03;;;;;;;3.05;1.20;;;21.80;1.00;;;;;;6219802;28;20061;-82
2023/10/03 13:03:05;;;;;;;3.75;1.00;;;22.50;1.00;;;;;;6244190;28;20052;-78
2023/10/03 13:06:08;;;;;;;3.00;0.90;;;22.70;1.00;;;;;;6242699;28;20132;-78
2023/10/03 13:09:10;;;;;;;3.50;1.02;;;21.60;1.00;;;;;;6221794;28;20058;-83
2023/10/03 13:12:12;;;;;;;3.13;1.02;;;22.20;1.00;;;;;;6245439;28;20049;-80
2023/10/03 13:15:15;;;;;;;2.70;0.95;;;22.90;1.00;;;;;;6219938;28;20058;-79
2023/10/03 13:18:17;;;;;;;4.43;1.00;;;23.70;1.00;;;;;;6245202;28;20046;-81
2023/10/03 13:21:21;;;;;;;4.72;1.50;;;23.90;1.00;;;;;;6229325;28;20059;-79
2023/10/03 13:24:25;;;;;;;3.10;1.00;;;24.40;1.00;;;;;;6245728;28;20493;-79
2023/10/03 13:27:26;;;;;;;2.80;0.95;;;23.40;1.00;;;;;;6221955;28;20135;-80
2023/10/03 13:30:28;;;;;;;3.70;1.33;;;23.70;1.00;;;;;;6244280;28;20049;-78
2023/10/03 13:33:31;;;;;;;4.88;1.08;;;23.70;1.00;;;;;;6220876;28;20057;-79
2023/10/03 13:36:33;;;;;;;16.95;1.70;;;23.70;1.00;;;;;;6244674;28;20049;-83
2023/10/03 13:39:35;;;;;;;7.35;1.13;;;24.00;1.00;;;;;;6244195;28;20083;-79
2023/10/03 13:42:40;;;;;;;3.55;1.00;;;23.60;1.00;;;;;;6222690;28;20426;-80
2023/10/03 13:45:42;;;;;;;2.63;0.85;;;24.00;1.00;;;;;;6224808;28;20421;-80
2023/10/03 13:48:44;;;;;;;2.78;1.00;;;24.30;1.00;;;;;;6244004;28;20045;-79
2023/10/03 13:51:46;;;;;;;5.07;1.10;;;23.60;1.00;;;;;;6244842;28;20053;-80
2023/10/03 13:54:48;;;;;;;4.20;0.93;;;23.80;1.00;;;;;;6220728;28;20133;-79
2023/10/03 13:57:52;;;;;;;3.25;0.93;;;22.90;1.00;;;;;;6242406;28;20049;-78
2023/10/03 14:00:53;;;;;;;2.67;0.88;;;22.20;1.00;;;;;;6244368;28;20413;-78
2023/10/03 14:03:56;;;;;;;3.55;0.95;;;21.90;1.00;;;;;;6224724;28;20136;-78
2023/10/03 14:06:58;;;;;;;3.80;1.67;;;21.90;1.00;;;;;;6245378;28;20046;-80
2023/10/03 14:10:00;;;;;;;2.83;0.80;;;22.20;1.00;;;;;;6220952;28;20053;-78
2023/10/03 14:13:02;;;;;;;5.47;0.90;;;21.50;1.00;;;;;;6235718;28;20061;-79
2023/10/03 14:16:03;;;;;;;2.72;0.90;;;21.10;1.00;;;;;;6219762;28;20517;-79
2023/10/03 14:19:05;;;;;;;8.75;1.50;;;21.90;1.00;;;;;;6242327;28;20053;-80
2023/10/03 14:22:07;;;;;;;4.90;0.90;;;22.70;1.00;;;;;;6244279;28;20056;-79
2023/10/03 14:25:14;;;;;;;9.43;1.33;;;23.30;1.00;;;;;;6231031;28;20479;-85
2023/10/03 14:28:16;;;;;;;2.17;0.85;;;23.60;1.00;;;;;;6233724;28;20061;-82
2023/10/03 14:31:19;;;;;;;15.15;1.35;;;23.50;1.00;;;;;;6244208;28;20045;-84
2023/10/03 14:34:21;;;;;;;2.15;0.90;;;23.40;1.00;;;;;;6245736;28;20049;-85
2023/10/03 14:37:22;;;;;;;4.75;1.30;;;23.30;1.00;;;;;;6219333;28;20383;-83
2023/10/03 14:40:24;;;;;;;2.92;1.05;;;23.30;1.00;;;;;;6230146;28;20053;-84
2023/10/03 14:43:25;;;;;;;1.77;0.70;;;22.90;1.00;;;;;;6232158;28;20057;-80
2023/10/03 14:46:28;;;;;;;3.17;1.00;;;22.60;1.00;;;;;;6218878;28;20135;-80
2023/10/03 14:49:29;;;;;;;2.33;0.98;;;22.20;1.00;;;;;;6198011;28;20331;-81
2023/10/03 14:52:31;;;;;;;5.55;1.10;;;22.10;1.00;;;;;;6218218;28;20141;-78
2023/10/03 14:55:33;;;;;;;3.58;0.80;;;22.00;1.00;;;;;;6219525;28;20191;-82
2023/10/03 14:58:38;;;;;;;3.92;0.95;;;21.70;1.00;;;;;;6214433;28;20100;-81
2023/10/03 15:01:39;;;;;;;5.15;1.27;;;21.30;1.00;;;;;;6219283;28;20063;-78
2023/10/03 15:04:41;;;;;;;19.08;2.25;;;20.50;1.00;;;;;;6217772;28;20046;-80
2023/10/03 15:07:47;;;;;;;3.97;0.88;;;20.00;1.00;;;;;;6194502;28;20058;-79
2023/10/03 15:10:50;;;;;;;5.40;1.00;;;19.60;1.00;;;;;;6218231;28;20501;-78
2023/10/03 15:13:51;;;;;;;3.38;0.88;;;19.40;1.00;;;;;;6216399;28;20053;-78
2023/10/03 15:16:54;;;;;;;2.33;0.70;;;19.00;1.00;;;;;;6216971;28;20107;-81
2023/10/03 15:19:56;;;;;;;8.93;1.13;;;18.80;1.00;;;;;;6216910;28;20520;-79
2023/10/03 15:22:58;;;;;;;3.60;0.82;;;18.80;1.00;;;;;;6218870;28;20120;-78
2023/10/03 15:26:04;;;;;;;4.15;0.90;;;18.60;1.00;;;;;;6219164;28;20081;-82
2023/10/03 15:29:06;;;;;;;6.88;1.13;;;18.40;1.00;;;;;;6200890;28;20054;-81
2023/10/03 15:32:07;;;;;;;3.83;1.23;;;18.40;1.00;;;;;;6205444;28;20058;-81
2023/10/03 15:35:12;;;;;;;5.30;1.45;;;18.30;1.00;;;;;;6187844;28;20068;-80
2023/10/03 15:38:15;;;;;;;3.25;1.10;;;18.30;1.00;;;;;;6222899;28;20053;-79
2023/10/03 15:41:16;;;;;;;7.10;1.10;;;18.20;1.00;;;;;;6234264;28;20687;-78
2023/10/03 15:44:18;;;;;;;4.13;1.00;;;18.10;1.00;;;;;;6237099;28;20621;-79
2023/10/03 15:47:22;;;;;;;3.15;1.05;;;18.10;1.00;;;;;;6269758;28;20100;-78
2023/10/03 15:50:23;;;;;;;3.42;0.98;;;18.00;1.00;;;;;;6269997;28;20076;-79
2023/10/03 15:53:27;;;;;;;5.88;1.10;;;18.10;1.00;;;;;;6211242;28;20057;-78
2023/10/03 15:56:29;;;;;;;9.23;1.23;;;18.10;1.00;;;;;;6253914;28;20064;-78
2023/10/03 15:59:30;;;;;;;4.78;0.90;;;18.10;1.00;;;;;;6225880;28;20054;-83
2023/10/03 16:02:32;;;;;;;3.78;0.90;;;18.10;1.00;;;;;;6248048;28;20662;-79